Hoytville, Pennsylvania
Current Conditions -  °F | °C
As of 5:15 PM on Sunday 25 Jan 2015 (Local Time) from KN38 Reporting Station
Few Clouds Few Clouds  
Wind Chill: 15°   Ceiling: Unl
Heat Index: 25°   Visibility: 10mi
Dew Point:   Wind: 9mph
Humidity: 43%   Direction: 40°NE
Pressure: 29.81"   Gusts: NA
Location:  41.533°N, 77.3132°W
Report Text: KN38 252215Z AUTO 04008KT 10SM FEW042 M04/M15 A2981 RMK AO2
Loading
Personal Weather Stations






























Interactive Weather Map New forecast layout! Learn more

10-Day Weather Forecast

Advertisements
Track Severe Weather on mobile